createdAt,value
2022-09-28T00:01:09.057Z,99471.06
2022-09-28T00:03:37.108Z,99467.00
2022-09-28T00:06:10.225Z,99467.31
2022-09-28T00:08:37.386Z,99462.94
2022-09-28T00:11:06.430Z,99466.66
2022-09-28T00:13:33.209Z,99468.50
2022-09-28T00:16:07.761Z,99458.72
2022-09-28T00:18:35.985Z,99462.25
2022-09-28T00:21:12.195Z,99454.31
2022-09-28T00:24:01.657Z,99453.47
2022-09-28T00:26:30.259Z,99458.88
2022-09-28T00:28:59.529Z,99446.22
2022-09-28T00:31:28.065Z,99458.88
2022-09-28T00:34:00.690Z,99452.81
2022-09-28T00:36:30.039Z,99451.97
2022-09-28T00:38:57.679Z,99445.88
2022-09-28T00:41:27.153Z,99454.28
2022-09-28T00:44:15.048Z,99445.69
2022-09-28T00:46:41.821Z,99449.03
2022-09-28T00:49:15.740Z,99446.97
2022-09-28T00:51:44.411Z,99445.59
2022-09-28T00:54:13.275Z,99430.03
2022-09-28T00:56:42.681Z,99434.06
2022-09-28T00:59:09.893Z,99436.09
2022-09-28T01:01:37.358Z,99442.47
2022-09-28T01:04:08.109Z,99437.41
2022-09-28T01:06:36.955Z,99434.03
2022-09-28T01:09:07.577Z,99425.09
2022-09-28T01:11:37.715Z,99430.31
2022-09-28T01:14:14.263Z,99434.88
2022-09-28T01:16:59.436Z,99434.88
2022-09-28T01:19:59.710Z,99430.00
2022-09-28T01:22:47.886Z,99425.94
2022-09-28T01:25:26.510Z,99423.41
2022-09-28T01:28:05.588Z,99430.94
2022-09-28T01:30:42.718Z,99427.56
2022-09-28T01:33:14.057Z,99423.16
2022-09-28T01:35:57.097Z,99424.34
2022-09-28T01:38:49.155Z,99425.19
2022-09-28T01:41:17.795Z,99425.84
2022-09-28T01:44:02.908Z,99426.72
2022-09-28T01:46:37.075Z,99429.25
2022-09-28T01:49:09.978Z,99432.63
2022-09-28T01:51:43.218Z,99435.19
2022-09-28T01:54:21.803Z,99429.81
2022-09-28T01:56:55.579Z,99431.50
2022-09-28T01:59:29.433Z,99430.81
2022-09-28T02:02:25.675Z,99431.94
2022-09-28T02:05:02.015Z,99424.84
2022-09-28T02:07:40.614Z,99429.56
2022-09-28T02:10:13.594Z,99426.88
2022-09-28T02:12:56.256Z,99429.56
2022-09-28T02:15:30.988Z,99428.88
2022-09-28T02:18:00.038Z,99429.19
2022-09-28T02:20:26.701Z,99426.81
2022-09-28T02:22:59.419Z,99429.00
2022-09-28T02:25:33.714Z,99418.53
2022-09-28T02:28:09.769Z,99433.84
2022-09-28T02:30:39.146Z,99429.31
2022-09-28T02:33:12.916Z,99430.16
2022-09-28T02:35:41.624Z,99438.22
2022-09-28T02:38:10.317Z,99435.38
2022-09-28T02:40:38.089Z,99433.84
2022-09-28T02:43:23.586Z,99435.84
2022-09-28T02:46:23.995Z,99437.88
2022-09-28T02:49:21.451Z,99431.47
2022-09-28T02:52:14.715Z,99436.16
2022-09-28T02:54:55.281Z,99432.63
2022-09-28T02:58:04.104Z,99432.09
2022-09-28T03:00:32.798Z,99434.47
2022-09-28T03:03:24.110Z,99437.34
2022-09-28T03:05:53.715Z,99430.09
2022-09-28T03:08:32.972Z,99434.63
2022-09-28T03:11:04.555Z,99430.09
2022-09-28T03:13:32.997Z,99430.09
2022-09-28T03:16:15.116Z,99436.34
2022-09-28T03:18:44.351Z,99431.78
2022-09-28T03:21:12.466Z,99428.25
2022-09-28T03:23:43.380Z,99435.50
2022-09-28T03:26:12.658Z,99435.66
2022-09-28T03:28:39.561Z,99437.34
2022-09-28T03:31:09.295Z,99437.34
2022-09-28T03:33:39.075Z,99443.56
2022-09-28T03:36:06.125Z,99434.63
2022-09-28T03:38:32.848Z,99425.72
2022-09-28T03:41:00.500Z,99441.03
2022-09-28T03:43:32.510Z,99442.88
2022-09-28T03:46:09.894Z,99446.41
2022-09-28T03:48:41.793Z,99434.78
2022-09-28T03:51:11.198Z,99437.50
2022-09-28T03:53:40.125Z,99441.88
2022-09-28T03:56:15.533Z,99439.19
2022-09-28T03:58:42.560Z,99436.50
2022-09-28T04:01:16.840Z,99440.88
2022-09-28T04:03:47.630Z,99439.03
2022-09-28T04:06:14.706Z,99435.31
2022-09-28T04:08:41.308Z,99437.19
2022-09-28T04:11:08.574Z,99435.16
2022-09-28T04:13:41.907Z,99438.88
2022-09-28T04:16:11.540Z,99437.72
2022-09-28T04:18:39.975Z,99432.16
2022-09-28T04:21:15.310Z,99440.25
2022-09-28T04:24:01.338Z,99430.47
2022-09-28T04:26:28.305Z,99443.94
2022-09-28T04:29:14.999Z,99436.88
2022-09-28T04:31:43.576Z,99439.56
2022-09-28T04:34:21.652Z,99429.94
2022-09-28T04:36:49.260Z,99429.09
2022-09-28T04:39:19.461Z,99430.78
2022-09-28T04:41:52.532Z,99440.72
2022-09-28T04:44:23.335Z,99432.78
2022-09-28T04:46:56.241Z,99430.09
2022-09-28T04:49:29.202Z,99431.94
2022-09-28T04:52:07.970Z,99430.94
2022-09-28T04:54:36.249Z,99430.78
2022-09-28T04:57:03.709Z,99436.88
2022-09-28T04:59:30.372Z,99439.56
2022-09-28T05:01:57.102Z,99436.16
2022-09-28T05:04:31.062Z,99429.09
2022-09-28T05:07:09.671Z,99433.63
2022-09-28T05:09:38.563Z,99440.19
2022-09-28T05:12:05.355Z,99447.91
2022-09-28T05:14:33.318Z,99445.69
2022-09-28T05:16:59.883Z,99445.16
2022-09-28T05:19:26.475Z,99459.78
2022-09-28T05:22:04.052Z,99455.00
2022-09-28T05:24:39.662Z,99456.44
2022-09-28T05:27:06.502Z,99458.59
2022-09-28T05:29:33.830Z,99455.38
2022-09-28T05:32:29.738Z,99460.22
2022-09-28T05:35:06.481Z,99454.16
2022-09-28T05:37:42.294Z,99463.38
2022-09-28T05:40:09.534Z,99455.47
2022-09-28T05:42:37.762Z,99464.69
2022-09-28T05:45:08.472Z,99460.31
2022-09-28T05:47:43.826Z,99465.00
2022-09-28T05:50:11.957Z,99466.00
2022-09-28T05:52:39.341Z,99473.22
2022-09-28T05:55:07.714Z,99469.53
2022-09-28T05:57:34.823Z,99473.09
2022-09-28T06:00:09.169Z,99472.22
2022-09-28T06:03:06.723Z,99478.78
2022-09-28T06:05:36.213Z,99475.38
2022-09-28T06:08:05.095Z,99481.78
2022-09-28T06:10:32.872Z,99472.84
2022-09-28T06:13:01.559Z,99477.22
2022-09-28T06:15:30.931Z,99484.16
2022-09-28T06:18:14.860Z,99484.84
2022-09-28T06:21:02.556Z,99485.38
2022-09-28T06:23:53.127Z,99494.16
2022-09-28T06:26:20.273Z,99500.09
2022-09-28T06:28:47.026Z,99500.78
2022-09-28T06:31:13.686Z,99505.00
2022-09-28T06:33:46.183Z,99500.16
2022-09-28T06:36:13.319Z,99507.78
2022-09-28T06:38:39.960Z,99506.47
2022-09-28T06:41:06.712Z,99508.56
2022-09-28T06:43:49.820Z,99509.78
2022-09-28T06:46:45.641Z,99514.25
2022-09-28T06:49:19.575Z,99512.78
2022-09-28T06:52:04.794Z,99509.78
2022-09-28T06:55:04.337Z,99511.84
2022-09-28T06:57:41.143Z,99510.38
2022-09-28T07:00:08.463Z,99515.97
2022-09-28T07:02:35.395Z,99517.19
2022-09-28T07:05:28.977Z,99512.72
2022-09-28T07:08:17.462Z,99506.38
2022-09-28T07:11:22.430Z,99512.38
2022-09-28T07:14:18.087Z,99518.19
2022-09-28T07:17:12.677Z,99525.84
2022-09-28T07:19:41.670Z,99520.53
2022-09-28T07:22:08.319Z,99530.38
2022-09-28T07:24:36.396Z,99531.47
2022-09-28T07:27:25.474Z,99533.19
2022-09-28T07:30:06.974Z,99531.56
2022-09-28T07:33:00.818Z,99535.31
2022-09-28T07:35:55.411Z,99540.88
2022-09-28T07:38:29.134Z,99541.72
2022-09-28T07:41:11.523Z,99546.50
2022-09-28T07:43:44.960Z,99545.31
2022-09-28T07:46:14.842Z,99550.56
2022-09-28T07:48:49.470Z,99553.78
2022-09-28T07:51:34.964Z,99553.09
2022-09-28T07:54:21.944Z,99552.06
2022-09-28T07:56:54.155Z,99554.78
2022-09-28T07:59:40.150Z,99556.78
2022-09-28T08:02:28.365Z,99561.84
2022-09-28T08:04:59.769Z,99559.78
2022-09-28T08:07:26.539Z,99567.94
2022-09-28T08:10:04.542Z,99564.03
2022-09-28T08:12:47.153Z,99571.78
2022-09-28T08:15:36.844Z,99569.88
2022-09-28T08:18:23.319Z,99576.94
2022-09-28T08:21:10.769Z,99574.03
2022-09-28T08:23:42.372Z,99574.47
2022-09-28T08:26:12.184Z,99573.44
2022-09-28T08:28:43.436Z,99574.06
2022-09-28T08:31:30.206Z,99585.34
2022-09-28T08:34:20.053Z,99579.38
2022-09-28T08:37:06.021Z,99581.38
2022-09-28T08:39:55.758Z,99587.94
2022-09-28T08:42:44.851Z,99589.94
2022-09-28T08:45:33.618Z,99585.28
2022-09-28T08:49:06.591Z,99590.44
2022-09-28T08:52:03.662Z,99585.72
2022-09-28T08:54:54.878Z,99593.13
2022-09-28T08:57:39.637Z,99595.66
2022-09-28T09:00:11.551Z,99589.38
2022-09-28T09:02:39.762Z,99602.22
2022-09-28T09:05:20.823Z,99600.06
2022-09-28T09:08:54.631Z,99604.44
2022-09-28T09:11:24.157Z,99607.72
2022-09-28T09:14:20.942Z,99601.91
2022-09-28T09:17:09.938Z,99612.44
2022-09-28T09:20:18.894Z,99610.91
2022-09-28T09:23:00.843Z,99611.09
2022-09-28T09:25:43.138Z,99603.63
2022-09-28T09:28:32.609Z,99617.31
2022-09-28T09:31:22.455Z,99611.50
2022-09-28T09:34:03.395Z,99616.28
2022-09-28T09:36:55.208Z,99616.94
2022-09-28T09:40:02.066Z,99619.09
2022-09-28T09:42:53.414Z,99627.53
2022-09-28T09:46:20.235Z,99620.22
2022-09-28T09:49:23.997Z,99627.63
2022-09-28T09:52:02.953Z,99626.50
2022-09-28T09:54:34.310Z,99623.78
2022-09-28T09:57:15.421Z,99629.56
2022-09-28T10:00:01.740Z,99628.41
2022-09-28T10:02:48.528Z,99623.31
2022-09-28T10:05:34.925Z,99624.41
2022-09-28T10:08:09.293Z,99624.22
2022-09-28T10:10:45.023Z,99616.97
2022-09-28T10:13:13.500Z,99622.56
2022-09-28T10:15:43.378Z,99618.56
2022-09-28T10:18:18.119Z,99624.13
2022-09-28T10:21:03.328Z,99615.66
2022-09-28T10:24:02.788Z,99618.19
2022-09-28T10:26:40.407Z,99620.06
2022-09-28T10:29:17.769Z,99623.03
2022-09-28T10:31:49.533Z,99615.16
2022-09-28T10:34:29.184Z,99623.78
2022-09-28T10:37:11.224Z,99623.78
2022-09-28T10:40:47.529Z,99625.66
2022-09-28T10:43:28.748Z,99622.19
2022-09-28T10:46:14.963Z,99625.50
2022-09-28T10:48:59.982Z,99618.81
2022-09-28T10:51:43.375Z,99620.97
2022-09-28T10:54:20.484Z,99623.69
2022-09-28T10:56:51.461Z,99625.13
2022-09-28T10:59:29.157Z,99620.72
2022-09-28T11:02:31.275Z,99623.81
2022-09-28T11:05:07.441Z,99623.13
2022-09-28T11:07:47.898Z,99623.47
2022-09-28T11:10:22.978Z,99619.91
2022-09-28T11:12:52.594Z,99614.94
2022-09-28T11:15:27.095Z,99610.34
2022-09-28T11:17:53.656Z,99612.88
2022-09-28T11:20:27.394Z,99609.50
2022-09-28T11:23:20.392Z,99611.19
2022-09-28T11:26:02.817Z,99611.63
2022-09-28T11:28:35.866Z,99609.56
2022-09-28T11:31:08.492Z,99613.78
2022-09-28T11:34:24.900Z,99615.84
2022-09-28T11:37:13.628Z,99616.88
2022-09-28T11:40:16.388Z,99612.88
2022-09-28T11:42:53.725Z,99612.38
2022-09-28T11:45:38.997Z,99611.47
2022-09-28T11:48:15.541Z,99619.78
2022-09-28T11:50:46.960Z,99615.97
2022-09-28T11:53:30.947Z,99607.59
2022-09-28T11:56:29.231Z,99610.38
2022-09-28T11:59:00.367Z,99607.28
2022-09-28T12:01:47.619Z,99605.41
2022-09-28T12:04:33.895Z,99605.25
2022-09-28T12:07:12.513Z,99594.25
2022-09-28T12:09:54.287Z,99591.41
2022-09-28T12:12:33.488Z,99597.81
2022-09-28T12:15:19.057Z,99606.50
2022-09-28T12:17:54.072Z,99603.19
2022-09-28T12:20:27.110Z,99604.25
2022-09-28T12:22:59.416Z,99609.31
2022-09-28T12:25:39.590Z,99601.59
2022-09-28T12:28:16.296Z,99598.84
2022-09-28T12:30:45.513Z,99612.28
2022-09-28T12:33:17.318Z,99611.00
2022-09-28T12:36:14.867Z,99607.59
2022-09-28T12:38:41.383Z,99608.38
2022-09-28T12:41:39.157Z,99607.53
2022-09-28T12:44:20.087Z,99600.69
2022-09-28T12:47:09.629Z,99597.03
2022-09-28T12:52:47.685Z,99592.47
2022-09-28T12:55:48.096Z,99589.88
2022-09-28T12:58:36.690Z,99591.66
2022-09-28T13:01:21.254Z,99594.59
2022-09-28T13:04:02.668Z,99597.16
2022-09-28T13:06:34.998Z,99599.66
2022-09-28T13:09:21.527Z,99600.06
2022-09-28T13:12:09.950Z,99604.41
2022-09-28T13:15:00.902Z,99611.47
2022-09-28T13:17:51.812Z,99611.91
2022-09-28T13:20:46.062Z,99603.56
2022-09-28T13:23:26.194Z,99608.66
2022-09-28T13:25:56.605Z,99618.44
2022-09-28T13:28:27.269Z,99606.84
2022-09-28T13:33:56.136Z,99615.59
2022-09-28T13:36:28.607Z,99616.84
2022-09-28T13:38:57.110Z,99627.25
2022-09-28T13:41:40.380Z,99635.34
2022-09-28T13:44:16.674Z,99639.81
2022-09-28T13:46:49.479Z,99648.63
2022-09-28T13:49:32.665Z,99636.03
2022-09-28T13:52:27.057Z,99631.81
2022-09-28T13:55:13.398Z,99637.47
2022-09-28T13:57:57.933Z,99646.06
2022-09-28T14:00:38.124Z,99664.28
2022-09-28T14:03:13.217Z,99670.06
2022-09-28T14:06:05.806Z,99663.31
2022-09-28T14:08:39.557Z,99659.09
2022-09-28T14:11:41.981Z,99674.69
2022-09-28T14:14:08.532Z,99669.16
2022-09-28T14:16:36.828Z,99667.38
2022-09-28T14:19:07.167Z,99659.47
2022-09-28T14:21:52.025Z,99644.53
2022-09-28T14:24:30.151Z,99660.25
2022-09-28T14:27:19.707Z,99651.81
2022-09-28T14:29:49.686Z,99666.00
2022-09-28T14:32:16.111Z,99660.59
2022-09-28T14:34:54.564Z,99653.31
2022-09-28T14:38:14.382Z,99660.78
2022-09-28T14:41:10.912Z,99661.66
2022-09-28T14:43:49.394Z,99663.00
2022-09-28T14:46:18.771Z,99664.34
2022-09-28T14:49:01.725Z,99688.38
2022-09-28T14:51:30.956Z,99688.22
2022-09-28T14:54:12.515Z,99693.63
2022-09-28T14:56:54.329Z,99699.06
2022-09-28T14:59:24.946Z,99694.31
2022-09-28T15:01:57.946Z,99690.69
2022-09-28T15:04:28.899Z,99689.34
2022-09-28T15:06:55.777Z,99696.63
2022-09-28T15:09:31.864Z,99698.81
2022-09-28T15:12:04.147Z,99710.22
2022-09-28T15:14:41.590Z,99704.47
2022-09-28T15:17:13.346Z,99697.34
2022-09-28T15:20:29.834Z,99692.09
2022-09-28T15:22:58.455Z,99688.38
2022-09-28T15:25:32.599Z,99700.06
2022-09-28T15:28:17.190Z,99704.47
2022-09-28T15:30:43.827Z,99703.94
2022-09-28T15:33:43.369Z,99709.84
2022-09-28T15:36:19.014Z,99713.25
2022-09-28T15:39:00.223Z,99718.50
2022-09-28T15:41:27.893Z,99703.09
2022-09-28T15:44:23.424Z,99710.19
2022-09-28T15:46:52.063Z,99711.53
2022-09-28T15:49:35.619Z,99704.94
2022-09-28T15:52:05.161Z,99712.38
2022-09-28T15:54:43.360Z,99705.59
2022-09-28T15:57:29.515Z,99713.19
2022-09-28T15:59:59.491Z,99712.69
2022-09-28T16:02:27.153Z,99711.50
2022-09-28T16:05:00.752Z,99719.28
2022-09-28T16:07:33.286Z,99722.31
2022-09-28T16:10:26.122Z,99726.22
2022-09-28T16:12:56.812Z,99726.72
2022-09-28T16:15:24.785Z,99722.81
2022-09-28T16:18:01.347Z,99709.25
2022-09-28T16:20:31.991Z,99718.25
2022-09-28T16:23:06.032Z,99712.00
2022-09-28T16:25:39.071Z,99714.19
2022-09-28T16:28:06.510Z,99713.69
2022-09-28T16:30:34.543Z,99719.63
2022-09-28T16:33:05.535Z,99715.03
2022-09-28T16:35:41.201Z,99717.41
2022-09-28T16:38:14.373Z,99721.47
2022-09-28T16:40:42.924Z,99721.16
2022-09-28T16:43:39.389Z,99725.38
2022-09-28T16:46:13.206Z,99719.78
2022-09-28T16:48:51.564Z,99724.19
2022-09-28T16:51:20.138Z,99731.63
2022-09-28T16:54:07.808Z,99729.94
2022-09-28T16:56:36.080Z,99729.09
2022-09-28T16:59:03.171Z,99726.88
2022-09-28T17:01:31.198Z,99732.47
2022-09-28T17:04:02.118Z,99741.78
2022-09-28T17:06:28.718Z,99735.03
2022-09-28T17:08:56.580Z,99737.06
2022-09-28T17:11:24.828Z,99736.56
2022-09-28T17:13:58.861Z,99738.94
2022-09-28T17:16:51.011Z,99743.19
2022-09-28T17:19:28.576Z,99742.00
2022-09-28T17:21:55.047Z,99744.38
2022-09-28T17:24:21.897Z,99756.06
2022-09-28T17:26:50.865Z,99752.00
2022-09-28T17:29:17.997Z,99751.84
2022-09-28T17:31:46.238Z,99753.69
2022-09-28T17:34:16.201Z,99764.00
2022-09-28T17:36:43.793Z,99758.94
2022-09-28T17:39:15.667Z,99762.50
2022-09-28T17:41:42.385Z,99763.66
2022-09-28T17:44:12.185Z,99770.25
2022-09-28T17:46:45.781Z,99755.31
2022-09-28T17:49:12.586Z,99760.56
2022-09-28T17:51:39.242Z,99767.47
2022-09-28T17:54:08.823Z,99761.22
2022-09-28T17:56:36.238Z,99765.94
2022-09-28T17:59:10.064Z,99771.34
2022-09-28T18:01:39.074Z,99768.66
2022-09-28T18:04:08.682Z,99762.06
2022-09-28T18:06:42.199Z,99763.41
2022-09-28T18:09:13.693Z,99766.25
2022-09-28T18:11:43.248Z,99766.44
2022-09-28T18:14:20.398Z,99776.06
2022-09-28T18:16:46.975Z,99776.88
2022-09-28T18:19:13.644Z,99779.22
2022-09-28T18:21:40.116Z,99780.72
2022-09-28T18:24:09.501Z,99787.63
2022-09-28T18:26:37.085Z,99786.09
2022-09-28T18:29:03.585Z,99786.44
2022-09-28T18:31:30.137Z,99787.78
2022-09-28T18:34:01.266Z,99779.13
2022-09-28T18:36:29.492Z,99776.88
2022-09-28T18:38:57.284Z,99794.44
2022-09-28T18:41:24.120Z,99786.81
2022-09-28T18:43:53.058Z,99787.81
2022-09-28T18:46:19.668Z,99788.00
2022-09-28T18:48:47.694Z,99789.00
2022-09-28T18:51:14.481Z,99795.03
2022-09-28T18:53:45.607Z,99790.28
2022-09-28T18:56:18.425Z,99790.25
2022-09-28T18:58:46.373Z,99786.31
2022-09-28T19:01:31.925Z,99798.41
2022-09-28T19:04:01.455Z,99796.50
2022-09-28T19:06:28.382Z,99798.69
2022-09-28T19:08:55.881Z,99804.09
2022-09-28T19:11:22.876Z,99798.84
2022-09-28T19:13:55.461Z,99797.63
2022-09-28T19:16:25.305Z,99798.25
2022-09-28T19:18:53.611Z,99799.69
2022-09-28T19:21:21.216Z,99797.47
2022-09-28T19:23:50.059Z,99801.84
2022-09-28T19:26:22.831Z,99806.41
2022-09-28T19:28:50.146Z,99810.13
2022-09-28T19:31:17.195Z,99801.84
2022-09-28T19:33:48.454Z,99803.25
2022-09-28T19:36:21.921Z,99803.97
2022-09-28T19:38:48.641Z,99803.97
2022-09-28T19:41:43.689Z,99807.09
2022-09-28T19:44:27.138Z,99812.66
2022-09-28T19:46:58.734Z,99810.81
2022-09-28T19:49:27.587Z,99805.56
2022-09-28T19:52:14.177Z,99814.66
2022-09-28T19:54:44.465Z,99818.06
2022-09-28T19:57:12.335Z,99826.84
2022-09-28T19:59:39.123Z,99816.75
2022-09-28T20:02:07.140Z,99822.78
2022-09-28T20:04:34.829Z,99820.00
2022-09-28T20:07:01.887Z,99817.78
2022-09-28T20:09:28.641Z,99825.88
2022-09-28T20:11:55.491Z,99821.31
2022-09-28T20:14:31.241Z,99821.31
2022-09-28T20:17:00.813Z,99825.31
2022-09-28T20:19:27.306Z,99820.84
2022-09-28T20:21:54.780Z,99814.22
2022-09-28T20:24:25.630Z,99823.78
2022-09-28T20:26:52.121Z,99823.25
2022-09-28T20:29:18.750Z,99820.84
2022-09-28T20:31:45.661Z,99820.31
2022-09-28T20:34:13.046Z,99827.88
2022-09-28T20:36:42.526Z,99829.31
2022-09-28T20:39:10.395Z,99823.00
2022-09-28T20:41:36.987Z,99832.78
2022-09-28T20:44:06.509Z,99829.78
2022-09-28T20:46:36.359Z,99828.63
2022-09-28T20:49:03.922Z,99824.78
2022-09-28T20:51:30.948Z,99833.72
2022-09-28T20:54:02.080Z,99835.72
2022-09-28T20:56:31.539Z,99834.72
2022-09-28T20:58:58.016Z,99834.72
2022-09-28T21:01:30.455Z,99828.47
2022-09-28T21:04:03.161Z,99832.03
2022-09-28T21:06:31.974Z,99836.88
2022-09-28T21:08:58.666Z,99830.09
2022-09-28T21:11:26.994Z,99834.22
2022-09-28T21:13:58.103Z,99837.50
2022-09-28T21:16:26.595Z,99838.81
2022-09-28T21:18:53.115Z,99832.56
2022-09-28T21:21:21.415Z,99831.88
2022-09-28T21:23:52.442Z,99831.88
2022-09-28T21:26:25.030Z,99835.72
2022-09-28T21:28:59.075Z,99833.16
2022-09-28T21:31:29.328Z,99834.16
2022-09-28T21:33:58.050Z,99841.41
2022-09-28T21:36:25.562Z,99837.97
2022-09-28T21:38:53.425Z,99833.75
2022-09-28T21:41:19.913Z,99835.03
2022-09-28T21:43:48.335Z,99836.19
2022-09-28T21:46:15.010Z,99847.28
2022-09-28T21:48:41.578Z,99848.41
2022-09-28T21:51:12.499Z,99847.72
2022-09-28T21:53:42.004Z,99849.72
2022-09-28T21:56:11.666Z,99845.16
2022-09-28T21:58:38.540Z,99846.16
2022-09-28T22:01:08.327Z,99851.56
2022-09-28T22:03:52.690Z,99856.09
2022-09-28T22:06:21.168Z,99849.00
2022-09-28T22:08:49.032Z,99857.25
2022-09-28T22:11:27.027Z,99855.69
2022-09-28T22:13:57.362Z,99855.13
2022-09-28T22:16:26.485Z,99858.84
2022-09-28T22:18:53.398Z,99856.28
2022-09-28T22:21:25.829Z,99870.75
2022-09-28T22:23:52.781Z,99865.50
2022-09-28T22:26:24.682Z,99867.50
2022-09-28T22:28:52.735Z,99863.41
2022-09-28T22:31:23.310Z,99864.69
2022-09-28T22:33:54.730Z,99867.97
2022-09-28T22:36:21.444Z,99869.09
2022-09-28T22:38:48.919Z,99875.63
2022-09-28T22:41:17.212Z,99869.66
2022-09-28T22:43:49.796Z,99876.19
2022-09-28T22:46:22.294Z,99872.66
2022-09-28T22:48:51.172Z,99879.03
2022-09-28T22:51:17.662Z,99880.03
2022-09-28T22:53:53.333Z,99877.34
2022-09-28T22:56:19.865Z,99872.09
2022-09-28T22:58:47.252Z,99869.53
2022-09-28T23:01:15.124Z,99875.06
2022-09-28T23:03:44.693Z,99872.38
2022-09-28T23:06:13.115Z,99872.38
2022-09-28T23:08:39.982Z,99874.09
2022-09-28T23:11:06.634Z,99870.41
2022-09-28T23:13:33.566Z,99872.09
2022-09-28T23:16:02.572Z,99873.78
2022-09-28T23:18:33.053Z,99870.41
2022-09-28T23:21:05.103Z,99863.31
2022-09-28T23:23:32.352Z,99867.00
2022-09-28T23:25:59.976Z,99870.53
2022-09-28T23:28:27.119Z,99871.69
2022-09-28T23:30:54.094Z,99867.28
2022-09-28T23:33:21.790Z,99866.44
2022-09-28T23:35:48.689Z,99869.13
2022-09-28T23:38:20.321Z,99878.06
2022-09-28T23:40:47.423Z,99875.38
2022-09-28T23:43:14.819Z,99878.91
2022-09-28T23:45:45.578Z,99882.44
2022-09-28T23:48:15.190Z,99883.28
2022-09-28T23:50:43.432Z,99877.22
2022-09-28T23:53:11.932Z,99878.19
2022-09-28T23:55:41.269Z,99887.13
2022-09-28T23:58:07.869Z,99888.13
